Terminal Aerodrome Forecast
Issued by NWS

Home | Current Version | Previous Version | Text Only | Print | Product List | Glossary On
Versions: 1 2 3 4 5 6 7 8 9 10 11 12 13 14 15 16
000
FTUS42 KTBW 290500
TAFRSW
TAF
KRSW 290540Z 2906/3006 23005KT P6SM VCSH SCT025 SCT100 BKN250
     FM291400 27011KT P6SM VCTS SCT025CB SCT100 BKN250
     FM291700 27013G20KT P6SM VCTS SCT030CB BKN100
     FM292200 27010KT P6SM SCT030 BKN100
     FM300100 24005KT P6SM SCT025 SCT100 BKN250=

USA.gov is the U.S. government's official web portal to all federal, state and local government web resources and services.